Time;durP1;ratioP1;P1;durP2;ratioP2;P2;SDS_P1;SDS_P2;PMS_P1;PMS_P2;Temp;Humidity;BMP_temperature;BMP_pressure;BME280_temperature;BME280_humidity;BME280_pressure;Samples;Min_cycle;Max_cycle;Signal;HPM_P1;HPM_P2
2021/07/03 00:02:47;;;;;;;;;38.00;34.50;;;;;26.56;68.42;100317.94;4994842;28;8853;-75
2021/07/03 00:05:42;;;;;;;;;35.75;31.75;;;;;26.95;66.35;100323.69;4976140;28;8852;-75
2021/07/03 00:08:38;;;;;;;;;33.00;31.25;;;;;26.77;67.65;100324.22;4976210;28;8848;-75
2021/07/03 00:11:35;;;;;;;;;35.40;33.00;;;;;26.61;67.87;100308.09;4977013;28;8971;-75
2021/07/03 00:14:34;;;;;;;;;41.75;36.25;;;;;26.71;67.71;100297.66;4964916;28;8855;-74
2021/07/03 00:17:31;;;;;;;;;39.50;35.25;;;;;26.78;67.72;100303.13;4977611;28;8868;-75
2021/07/03 00:20:27;;;;;;;;;36.50;33.50;;;;;26.65;68.01;100290.94;4990244;28;8830;-75
2021/07/03 00:23:22;;;;;;;;;37.50;34.25;;;;;26.52;68.71;100296.59;4995610;28;8838;-75
2021/07/03 00:26:19;;;;;;;;;37.75;34.00;;;;;26.26;69.24;100305.00;4957843;28;8976;-74
2021/07/03 00:29:15;;;;;;;;;50.50;42.75;;;;;25.57;70.38;100287.41;4943907;28;8859;-75
2021/07/03 00:32:10;;;;;;;;;37.50;32.25;;;;;25.68;72.35;100290.75;4957951;28;8847;-75
2021/07/03 00:35:07;;;;;;;;;16.00;16.00;;;;;25.82;71.95;100294.47;4959313;28;8854;-75
2021/07/03 00:38:02;;;;;;;;;36.50;33.25;;;;;26.41;69.62;100285.56;4957378;28;8816;-74
2021/07/03 00:40:58;;;;;;;;;34.25;32.00;;;;;26.35;69.83;100276.00;4956271;28;8918;-75
2021/07/03 00:43:54;;;;;;;;;43.50;38.00;;;;;26.16;70.44;100276.97;4956135;28;8877;-74
2021/07/03 00:46:49;;;;;;;;;48.25;39.50;;;;;26.24;69.33;100279.16;4944798;28;8851;-74
2021/07/03 00:49:46;;;;;;;;;45.75;38.75;;;;;25.95;69.44;100292.50;4975005;28;8854;-73
2021/07/03 00:52:43;;;;;;;;;51.50;43.50;;;;;25.82;70.18;100291.63;4981609;28;8916;-73
2021/07/03 00:55:39;;;;;;;;;58.25;46.75;;;;;25.82;69.97;100291.63;4993778;28;8826;-74
2021/07/03 00:58:35;;;;;;;;;68.25;57.50;;;;;25.51;68.44;100283.50;4956289;28;8866;-74
2021/07/03 01:01:31;;;;;;;;;62.75;50.50;;;;;25.75;68.71;100282.09;4943669;28;8863;-75
2021/07/03 01:04:27;;;;;;;;;66.25;52.50;;;;;25.85;67.70;100290.78;4976728;28;8850;-75
2021/07/03 01:07:23;;;;;;;;;68.00;55.25;;;;;25.61;69.32;100287.28;4994334;28;9595;-75
2021/07/03 01:10:23;;;;;;;;;69.00;53.00;;;;;26.01;68.37;100291.53;4994732;28;8867;-75
2021/07/03 01:13:25;;;;;;;;;66.00;53.75;;;;;26.03;68.20;100286.19;4942288;28;8858;-74
2021/07/03 01:16:21;;;;;;;;;70.00;58.00;;;;;26.02;66.45;100284.59;4955393;28;9624;-75
2021/07/03 01:19:17;;;;;;;;;63.33;52.00;;;;;25.86;67.18;100292.34;4963733;28;9185;-75
2021/07/03 01:22:13;;;;;;;;;59.75;48.50;;;;;25.37;69.00;100290.31;4994106;28;9095;-75
2021/07/03 01:25:10;;;;;;;;;68.67;59.00;;;;;25.76;69.65;100291.38;4994123;28;8845;-76
2021/07/03 01:28:06;;;;;;;;;58.75;48.00;;;;;25.90;68.38;100301.53;4994534;28;9108;-75
2021/07/03 01:31:02;;;;;;;;;43.75;38.00;;;;;25.71;68.49;100300.41;4994016;28;8866;-74
2021/07/03 01:33:57;;;;;;;;;54.00;45.50;;;;;25.84;68.96;100297.66;4993862;28;8847;-75
2021/07/03 01:36:55;;;;;;;;;32.00;30.75;;;;;25.90;68.41;100299.50;4981566;28;8835;-74
2021/07/03 01:39:52;;;;;;;;;49.25;38.75;;;;;26.09;68.59;100300.63;4994580;28;8847;-75
2021/07/03 01:42:48;;;;;;;;;42.50;37.50;;;;;26.06;68.24;100299.47;4995609;28;8869;-74
2021/07/03 01:45:43;;;;;;;;;53.00;44.50;;;;;26.05;68.22;100300.72;4980823;28;8826;-74
2021/07/03 01:48:40;;;;;;;;;33.75;31.50;;;;;26.04;67.28;100299.13;4993729;28;8819;-74
2021/07/03 01:51:37;;;;;;;;;28.40;26.80;;;;;25.88;66.93;100296.31;4955358;28;9000;-75
2021/07/03 01:54:34;;;;;;;;;22.80;22.80;;;;;25.63;68.28;100301.81;4954734;28;8863;-74
2021/07/03 01:57:30;;;;;;;;;35.50;32.00;;;;;25.81;69.33;100305.00;4955718;28;8883;-75
2021/07/03 02:00:25;;;;;;;;;28.80;28.80;;;;;25.88;68.10;100304.03;4955525;28;8858;-74
2021/07/03 02:03:22;;;;;;;;;30.20;29.60;;;;;26.02;68.15;100300.81;4954405;28;8945;-75
2021/07/03 02:06:17;;;;;;;;;27.60;27.60;;;;;26.15;67.65;100295.19;4954894;28;8847;-75
2021/07/03 02:09:14;;;;;;;;;21.00;21.00;;;;;25.99;67.26;100301.69;4955117;28;8859;-74
2021/07/03 02:12:10;;;;;;;;;19.20;19.20;;;;;25.90;67.11;100308.00;4954512;28;9678;-75
2021/07/03 02:15:06;;;;;;;;;20.20;20.20;;;;;25.65;68.46;100300.13;4957235;28;8882;-75
2021/07/03 02:18:03;;;;;;;;;21.20;20.80;;;;;25.68;69.12;100299.22;4954589;28;8855;-74
2021/07/03 02:20:59;;;;;;;;;19.00;19.00;;;;;25.69;68.15;100297.22;4961744;28;8971;-74
2021/07/03 02:23:54;;;;;;;;;19.40;19.40;;;;;26.06;68.02;100301.50;4973688;28;9590;-74
2021/07/03 02:26:50;;;;;;;;;20.20;20.20;;;;;26.07;66.95;100291.78;4973275;28;9579;-75
2021/07/03 02:29:46;;;;;;;;;21.60;21.60;;;;;25.95;68.36;100289.69;4942119;28;8917;-74
2021/07/03 02:32:43;;;;;;;;;16.80;16.80;;;;;25.92;66.81;100294.22;4987228;28;8912;-75
2021/07/03 02:35:39;;;;;;;;;52.50;44.50;;;;;25.90;66.91;100293.84;4993799;28;9622;-74
2021/07/03 02:38:35;;;;;;;;;17.40;17.00;;;;;25.95;67.78;100295.34;4993133;28;8985;-74
2021/07/03 02:41:30;;;;;;;;;38.75;35.25;;;;;26.01;67.70;100290.72;4993519;28;8877;-72
2021/07/03 02:44:26;;;;;;;;;66.67;55.67;;;;;26.04;66.54;100301.94;4993476;28;8859;-73
2021/07/03 02:47:22;;;;;;;;;61.75;51.25;;;;;26.10;66.87;100302.22;4992680;28;8947;-73
2021/07/03 02:50:20;;;;;;;;;52.50;44.25;;;;;25.88;66.52;100304.81;4993458;28;8854;-73
2021/07/03 02:53:16;;;;;;;;;49.00;42.00;;;;;25.85;67.36;100307.75;4993333;28;8873;-74
2021/07/03 02:56:11;;;;;;;;;52.25;44.25;;;;;25.78;68.63;100301.03;4992588;28;8974;-73
2021/07/03 02:59:07;;;;;;;;;51.25;41.50;;;;;25.77;68.05;100298.66;4994643;28;8850;-73
2021/07/03 03:02:03;;;;;;;;;68.00;57.00;;;;;26.10;67.51;100299.38;4982309;28;10138;-74
2021/07/03 03:04:59;;;;;;;;;60.00;49.50;;;;;25.86;68.15;100303.69;4974630;28;9575;-73
2021/07/03 03:07:55;;;;;;;;;56.25;47.25;;;;;25.56;69.67;100299.19;4973741;28;8848;-73
2021/07/03 03:10:52;;;;;;;;;55.75;46.75;;;;;25.31;71.10;100289.28;4973044;28;8857;-73
2021/07/03 03:13:48;;;;;;;;;57.75;48.25;;;;;25.73;70.03;100295.91;4960977;28;8849;-74
2021/07/03 03:16:44;;;;;;;;;56.75;47.50;;;;;26.15;68.44;100301.69;4973918;28;8868;-73
2021/07/03 03:19:39;;;;;;;;;62.00;51.00;;;;;26.32;67.64;100289.03;4977741;28;9603;-74
2021/07/03 03:22:35;;;;;;;;;65.00;53.67;;;;;26.06;67.10;100287.34;4978531;28;8936;-73
2021/07/03 03:25:31;;;;;;;;;60.75;50.25;;;;;26.09;67.04;100294.97;4976449;28;9029;-73
2021/07/03 03:28:26;;;;;;;;;55.00;45.25;;;;;26.19;67.08;100284.56;4976802;28;8840;-72
2021/07/03 03:31:22;;;;;;;;;50.75;42.00;;;;;25.96;67.51;100285.59;4979283;28;8837;-73
2021/07/03 03:34:17;;;;;;;;;56.25;46.75;;;;;26.25;66.81;100277.91;4978935;28;8844;-73
2021/07/03 03:37:15;;;;;;;;;50.75;43.25;;;;;26.44;65.88;100276.16;4976239;28;8891;-73
2021/07/03 03:40:11;;;;;;;;;53.75;44.50;;;;;26.60;66.16;100278.09;4978007;28;8968;-72
2021/07/03 03:43:07;;;;;;;;;43.50;38.00;;;;;26.23;66.11;100269.06;4977367;28;8860;-72
2021/07/03 03:46:02;;;;;;;;;54.75;46.00;;;;;26.21;66.97;100273.56;4976532;28;8845;-73
2021/07/03 03:48:58;;;;;;;;;56.75;47.25;;;;;26.11;66.08;100272.63;4963741;28;8861;-72
2021/07/03 03:51:54;;;;;;;;;51.75;43.75;;;;;26.21;67.30;100263.00;4976924;28;8860;-72
2021/07/03 03:54:49;;;;;;;;;57.00;47.75;;;;;26.40;66.36;100252.78;4977801;28;8935;-72
2021/07/03 03:57:48;;;;;;;;;73.25;67.50;;;;;26.41;65.59;100267.75;4976595;28;8855;-73
2021/07/03 04:00:44;;;;;;;;;78.33;74.33;;;;;26.48;65.74;100256.22;4968341;28;9562;-73
2021/07/03 04:03:40;;;;;;;;;77.50;75.00;;;;;26.33;65.37;100261.47;4976879;28;10321;-72
2021/07/03 04:06:35;;;;;;;;;87.00;82.50;;;;;26.38;66.04;100255.25;4957334;28;9892;-74
2021/07/03 04:09:31;;;;;;;;;86.75;85.00;;;;;26.43;65.88;100262.44;4965245;28;10283;-72
2021/07/03 04:12:27;;;;;;;;;66.67;56.33;;;;;26.39;67.07;100261.75;4989619;28;10470;-72
2021/07/03 04:15:23;;;;;;;;;76.75;71.50;;;;;26.36;65.93;100279.63;4991103;28;9012;-72
2021/07/03 04:18:19;;;;;;;;;71.67;63.67;;;;;26.37;66.68;100292.53;4975895;28;9789;-73
2021/07/03 04:21:14;;;;;;;;;67.50;57.75;;;;;26.38;66.67;100305.47;4973246;28;9073;-72
2021/07/03 04:24:10;;;;;;;;;70.33;59.00;;;;;26.55;66.50;100290.03;4968512;28;9000;-73
2021/07/03 04:27:05;;;;;;;;;61.25;49.75;;;;;26.32;67.57;100305.25;4956578;28;9247;-73
2021/07/03 04:30:03;;;;;;;;;60.50;49.25;;;;;26.43;68.75;100285.91;4957721;28;8869;-75
2021/07/03 04:32:59;;;;;;;;;67.00;55.25;;;;;26.32;68.26;100280.53;4957464;28;8847;-75
2021/07/03 04:35:54;;;;;;;;;63.00;50.00;;;;;26.26;69.93;100284.34;4985596;28;8860;-77
2021/07/03 04:38:50;;;;;;;;;57.75;48.25;;;;;25.97;74.00;100290.81;4981962;28;8905;-75
2021/07/03 04:41:45;;;;;;;;;61.75;50.75;;;;;25.75;73.15;100290.59;4963817;28;8875;-77
2021/07/03 04:44:45;;;;;;;;;36.00;32.00;;;;;25.87;73.04;100291.91;4970212;28;8850;-76
2021/07/03 04:47:40;;;;;;;;;43.25;37.25;;;;;25.94;73.64;100290.91;4996766;28;9005;-77
2021/07/03 04:50:36;;;;;;;;;33.00;31.50;;;;;25.90;75.27;100287.38;4960370;28;8846;-78
2021/07/03 04:53:32;;;;;;;;;37.50;34.25;;;;;25.77;75.18;100285.28;4943977;28;9730;-78
2021/07/03 04:56:27;;;;;;;;;29.00;28.80;;;;;25.63;74.72;100274.31;4956618;28;8838;-78
2021/07/03 04:59:23;;;;;;;;;39.50;35.50;;;;;25.68;75.01;100275.78;4943710;28;8987;-77
2021/07/03 05:02:18;;;;;;;;;39.75;35.75;;;;;25.55;75.82;100280.59;4956928;28;8851;-78
2021/07/03 05:05:15;;;;;;;;;38.75;34.75;;;;;25.50;76.81;100276.25;4943735;28;8838;-78
2021/07/03 05:08:11;;;;;;;;;37.00;33.75;;;;;25.74;75.00;100274.84;4944346;28;8875;-77
2021/07/03 05:11:07;;;;;;;;;31.75;30.75;;;;;25.98;74.58;100277.44;4944633;28;8873;-77
2021/07/03 05:14:02;;;;;;;;;31.25;30.25;;;;;25.33;76.75;100271.84;4955995;28;8924;-77
2021/07/03 05:16:58;;;;;;;;;35.00;32.50;;;;;25.29;77.32;100274.75;4967060;28;9672;-77
2021/07/03 05:19:54;;;;;;;;;33.00;31.40;;;;;25.56;76.28;100282.19;4963592;28;8857;-79
2021/07/03 05:22:51;;;;;;;;;32.40;31.00;;;;;25.63;75.67;100279.97;4965297;28;9043;-78
2021/07/03 05:25:47;;;;;;;;;39.75;35.25;;;;;25.80;76.18;100277.13;4994549;28;8826;-76
2021/07/03 05:28:43;;;;;;;;;35.00;32.50;;;;;26.06;74.81;100265.47;4994183;28;8853;-77
2021/07/03 05:31:38;;;;;;;;;33.40;31.80;;;;;26.26;74.71;100259.66;4982104;28;8835;-77
2021/07/03 05:34:35;;;;;;;;;32.60;31.20;;;;;26.40;74.74;100263.34;4988129;28;8924;-76
2021/07/03 05:37:30;;;;;;;;;31.75;31.00;;;;;26.68;73.37;100268.13;4975088;28;8872;-76
2021/07/03 05:40:27;;;;;;;;;34.25;32.00;;;;;26.50;73.43;100274.34;4973332;28;8883;-76
2021/07/03 05:43:23;;;;;;;;;38.60;35.00;;;;;26.64;73.63;100278.03;4961796;28;8853;-76
2021/07/03 05:46:19;;;;;;;;;46.25;39.75;;;;;26.32;74.41;100271.22;4956380;28;8921;-77
2021/07/03 05:49:18;;;;;;;;;58.50;48.50;;;;;26.16;74.62;100280.59;4943805;28;8843;-75
2021/07/03 05:52:14;;;;;;;;;70.00;61.67;;;;;25.96;76.88;100268.59;4954868;28;8863;-73
2021/07/03 05:55:10;;;;;;;;;50.25;42.75;;;;;25.99;76.79;100262.03;4955534;28;8942;-76
2021/07/03 05:58:06;;;;;;;;;69.25;59.50;;;;;26.14;75.97;100251.88;4944803;28;8851;-78
2021/07/03 06:01:04;;;;;;;;;66.00;54.75;;;;;26.27;75.67;100246.25;4965827;28;8837;-76
2021/07/03 06:04:00;;;;;;;;;50.50;43.25;;;;;26.50;72.86;100243.16;4974083;28;9090;-78
2021/07/03 06:06:56;;;;;;;;;52.75;44.75;;;;;26.84;71.28;100242.53;4954773;28;8839;-78
2021/07/03 06:09:54;;;;;;;;;58.75;48.75;;;;;27.02;71.42;100250.47;4955879;28;8906;-77
2021/07/03 06:12:50;;;;;;;;;56.50;47.25;;;;;27.23;70.58;100260.38;4957653;28;10033;-78
2021/07/03 06:15:46;;;;;;;;;58.25;48.00;;;;;27.30;70.24;100270.69;4955000;28;8973;-76
2021/07/03 06:18:41;;;;;;;;;65.75;54.25;;;;;27.40;71.89;100269.53;4973862;28;8860;-77
2021/07/03 06:21:37;;;;;;;;;63.25;52.00;;;;;27.36;71.84;100286.69;4989458;28;8966;-77
2021/07/03 06:24:33;;;;;;;;;53.75;45.00;;;;;26.99;71.89;100276.09;4978715;28;8955;-76
2021/07/03 06:27:28;;;;;;;;;60.75;50.25;;;;;26.96;70.75;100279.84;4973824;28;8853;-77
2021/07/03 06:30:25;;;;;;;;;64.50;52.25;;;;;26.98;71.13;100277.34;4974617;28;8852;-77
2021/07/03 06:33:23;;;;;;;;;60.25;49.75;;;;;27.23;69.23;100283.06;4974081;28;8856;-77
2021/07/03 06:36:19;;;;;;;;;70.00;61.33;;;;;27.25;69.83;100277.72;4978925;28;8842;-75
2021/07/03 06:39:15;;;;;;;;;84.25;82.00;;;;;27.06;69.70;100284.44;4969521;28;9771;-75
2021/07/03 06:42:11;;;;;;;;;73.00;64.00;;;;;26.89;68.56;100292.22;4962103;28;10004;-77
2021/07/03 06:45:07;;;;;;;;;71.00;60.00;;;;;27.05;68.37;100288.50;4954246;28;9357;-76
2021/07/03 06:48:03;;;;;;;;;71.25;61.25;;;;;26.98;67.95;100292.34;4943758;28;8866;-74
2021/07/03 06:50:59;;;;;;;;;79.50;78.50;;;;;27.22;67.96;100284.34;4964659;28;8919;-75
2021/07/03 06:53:57;;;;;;;;;95.00;92.25;;;;;27.20;67.84;100286.00;4960283;28;9922;-74
2021/07/03 06:56:57;;;;;;;;;93.50;87.25;;;;;27.20;67.71;100286.00;4973355;28;11396;-75
2021/07/03 07:00:00;;;;;;;;;76.25;71.00;;;;;27.39;66.74;100297.13;4974738;28;10346;-78
2021/07/03 07:02:56;;;;;;;;;75.67;71.67;;;;;27.21;65.29;100298.94;4959872;28;10530;-76
2021/07/03 07:05:52;;;;;;;;;77.33;70.33;;;;;27.14;69.03;100291.47;4973217;28;9426;-76
2021/07/03 07:08:48;;;;;;;;;62.75;51.00;;;;;26.98;68.75;100289.50;4967889;28;9331;-76
2021/07/03 07:11:44;;;;;;;;;62.75;50.25;;;;;26.91;69.32;100292.56;4972014;28;8872;-76
2021/07/03 07:14:42;;;;;;;;;59.50;46.75;;;;;27.20;68.67;100295.31;4972316;28;8833;-75
2021/07/03 07:17:38;;;;;;;;;53.25;44.75;;;;;27.32;68.49;100291.69;4952017;28;8847;-76
2021/07/03 07:20:34;;;;;;;;;28.60;28.60;;;;;27.40;68.64;100290.22;4954232;29;8859;-75
2021/07/03 07:23:29;;;;;;;;;53.75;45.25;;;;;27.78;66.78;100288.56;4971481;28;8872;-75
2021/07/03 07:26:26;;;;;;;;;32.20;30.60;;;;;28.17;66.52;100295.69;4973194;28;8869;-76
2021/07/03 07:29:21;;;;;;;;;36.20;32.20;;;;;27.99;64.66;100284.97;4968135;28;9036;-75
2021/07/03 07:32:18;;;;;;;;;43.00;35.40;;;;;27.90;64.92;100282.03;4941369;28;8991;-80
2021/07/03 07:35:14;;;;;;;;;29.00;28.60;;;;;28.20;65.53;100277.69;4948145;28;8853;-78
2021/07/03 07:38:09;;;;;;;;;28.40;27.60;;;;;28.39;64.52;100284.38;4956660;28;8917;-76
2021/07/03 07:41:06;;;;;;;;;23.00;23.00;;;;;28.55;64.15;100283.34;4949820;28;8871;-76
2021/07/03 07:44:03;;;;;;;;;26.00;26.00;;;;;28.90;63.57;100284.84;4942271;28;8843;-78
2021/07/03 07:46:58;;;;;;;;;23.60;23.00;;;;;28.79;63.16;100287.28;4959847;28;8817;-78
2021/07/03 07:49:54;;;;;;;;;26.20;25.60;;;;;28.98;61.59;100291.03;4955964;28;8845;-77
2021/07/03 07:52:50;;;;;;;;;43.80;35.60;;;;;28.94;62.49;100291.19;4942490;28;8860;-75
2021/07/03 07:55:45;;;;;;;;;24.80;24.80;;;;;29.00;62.05;100297.88;4945727;28;8844;-78
2021/07/03 07:58:41;;;;;;;;;22.40;22.20;;;;;29.06;59.62;100298.84;4956803;28;8888;-78
2021/07/03 08:01:36;;;;;;;;;25.80;25.60;;;;;29.15;61.88;100311.53;4957769;28;8971;-76
2021/07/03 08:04:32;;;;;;;;;40.60;35.20;;;;;29.32;61.68;100310.78;4944261;28;8843;-77
2021/07/03 08:07:30;;;;;;;;;29.80;28.60;;;;;29.35;60.13;100311.91;4968100;28;8860;-74
2021/07/03 08:10:27;;;;;;;;;19.80;19.80;;;;;29.06;58.70;100307.38;4982618;28;9016;-76
2021/07/03 08:13:24;;;;;;;;;35.20;32.40;;;;;29.26;59.26;100320.41;4975005;28;8876;-76
2021/07/03 08:16:22;;;;;;;;;45.80;39.60;;;;;29.13;60.16;100314.03;4976496;28;9594;-76
2021/07/03 08:19:19;;;;;;;;;60.75;49.75;;;;;29.40;56.75;100319.06;4975905;28;8853;-77
2021/07/03 08:22:14;;;;;;;;;40.20;35.20;;;;;29.10;57.78;100314.97;4977195;28;8857;-77
2021/07/03 08:25:12;;;;;;;;;40.20;35.40;;;;;29.40;59.12;100319.84;4975915;28;8864;-74
2021/07/03 08:28:09;;;;;;;;;21.00;21.00;;;;;29.46;58.71;100314.31;4964675;28;8842;-76
2021/07/03 08:31:04;;;;;;;;;29.00;28.80;;;;;29.49;60.16;100331.25;4992471;28;8840;-75
2021/07/03 08:34:00;;;;;;;;;35.20;32.40;;;;;29.56;60.54;100330.19;4976902;28;8833;-75
2021/07/03 08:36:30;;;;;;;;;24.40;23.60;;;;;29.32;59.23;100332.78;4962963;28;8968;-76
2021/07/03 08:39:26;;;;;;;;;27.40;25.80;;;;;29.34;59.75;100327.41;4979337;28;8849;-75
2021/07/03 08:42:22;;;;;;;;;33.60;31.00;;;;;29.08;62.48;100324.78;4977509;28;8844;-74
2021/07/03 08:45:18;;;;;;;;;30.20;29.40;;;;;29.38;61.71;100325.22;4976239;28;8860;-75
2021/07/03 08:48:20;;;;;;;;;24.80;24.80;;;;;29.24;61.02;100323.75;4975490;28;8952;-75
2021/07/03 08:51:16;;;;;;;;;25.80;25.80;;;;;29.27;60.07;100325.63;4964977;28;8863;-75
2021/07/03 08:54:11;;;;;;;;;22.20;22.20;;;;;29.17;60.77;100329.72;4962282;28;8892;-75
2021/07/03 08:57:07;;;;;;;;;20.00;20.00;;;;;28.84;60.30;100323.69;4978946;28;8849;-76
2021/07/03 09:00:04;;;;;;;;;22.20;21.40;;;;;29.34;59.17;100331.03;4981227;28;9590;-75
2021/07/03 09:03:08;;;;;;;;;19.80;19.80;;;;;29.42;57.12;100325.84;4967312;28;8864;-74
2021/07/03 09:06:07;;;;;;;;;20.60;20.60;;;;;29.55;57.58;100326.56;4970844;28;8837;-75
2021/07/03 09:09:02;;;;;;;;;19.40;19.40;;;;;29.49;56.23;100321.91;4956112;28;8853;-76
2021/07/03 09:11:58;;;;;;;;;16.60;15.60;;;;;29.35;56.05;100315.53;4975176;28;8804;-73
2021/07/03 09:14:54;;;;;;;;;23.40;23.40;;;;;29.73;55.74;100313.63;4959842;28;8844;-76
2021/07/03 09:18:04;;;;;;;;;22.60;22.60;;;;;29.57;56.54;100326.88;4976801;28;8891;-74
2021/07/03 09:21:07;;;;;;;;;18.20;18.20;;;;;29.51;55.33;100311.66;4978431;28;8854;-76
2021/07/03 09:24:13;;;;;;;;;20.40;20.40;;;;;29.79;56.01;100314.56;4995040;28;8843;-76
2021/07/03 09:27:12;;;;;;;;;17.80;17.80;;;;;29.89;56.71;100305.56;4956337;28;8871;-76
2021/07/03 09:30:08;;;;;;;;;17.00;17.00;;;;;29.48;56.81;100301.19;4955826;28;8843;-77
2021/07/03 09:33:04;;;;;;;;;17.80;17.80;;;;;29.68;55.25;100297.16;4946467;28;8850;-75
2021/07/03 09:36:13;;;;;;;;;20.40;20.20;;;;;30.02;54.84;100293.22;4958934;28;8910;-76
2021/07/03 09:39:10;;;;;;;;;14.60;14.60;;;;;30.14;54.38;100295.94;4968275;28;8939;-75
2021/07/03 09:42:15;;;;;;;;;13.00;13.00;;;;;30.11;53.84;100296.88;4942542;28;8847;-75
2021/07/03 09:45:16;;;;;;;;;18.00;18.00;;;;;30.11;53.05;100294.03;4959042;28;8859;-74
2021/07/03 09:48:12;;;;;;;;;14.00;14.00;;;;;30.22;52.38;100295.63;4957391;28;8847;-75
2021/07/03 09:50:47;;;;;;;;;14.20;14.20;;;;;30.21;52.63;100291.19;4960980;28;8857;-74
2021/07/03 09:53:44;;;;;;;;;15.80;15.80;;;;;30.23;51.31;100286.59;4965617;28;8888;-73
2021/07/03 09:56:40;;;;;;;;;18.00;18.00;;;;;30.14;52.65;100284.56;4971002;28;8855;-75
2021/07/03 09:59:36;;;;;;;;;11.80;11.80;;;;;29.90;51.50;100269.28;4975165;28;8945;-75
2021/07/03 10:02:34;;;;;;;;;13.00;13.00;;;;;29.75;51.92;100259.78;4960957;28;8872;-74
2021/07/03 10:05:38;;;;;;;;;11.60;11.60;;;;;29.82;52.06;100239.53;4977563;28;9759;-73
2021/07/03 10:08:41;;;;;;;;;12.20;12.20;;;;;29.92;51.26;100226.88;4972098;28;8857;-77
2021/07/03 10:11:45;;;;;;;;;13.80;13.80;;;;;29.73;52.70;100216.72;4955811;28;8967;-76
2021/07/03 10:14:44;;;;;;;;;15.40;15.40;;;;;29.94;52.99;100215.78;4957563;28;8871;-75
2021/07/03 10:17:25;;;;;;;;;13.60;13.60;;;;;29.81;52.91;100223.69;4964135;28;9940;-75
2021/07/03 10:20:22;;;;;;;;;14.00;14.00;;;;;29.66;52.84;100249.16;4960276;28;8867;-74
2021/07/03 10:23:18;;;;;;;;;15.00;15.00;;;;;29.40;54.58;100265.72;4955853;28;8985;-74
2021/07/03 10:26:14;;;;;;;;;15.80;14.80;;;;;28.82;55.40;100260.72;4950553;28;8825;-74
2021/07/03 10:29:24;;;;;;;;;32.00;30.60;;;;;29.01;55.77;100273.03;4953096;28;8969;-74
2021/07/03 10:32:22;;;;;;;;;48.40;41.40;;;;;28.92;55.34;100276.63;4948296;28;8885;-75
2021/07/03 10:35:20;;;;;;;;;35.40;32.20;;;;;28.59;56.84;100276.25;4959809;28;8825;-75
2021/07/03 10:38:19;;;;;;;;;17.20;17.20;;;;;28.22;56.27;100293.06;4961120;28;8854;-74
2021/07/03 10:41:25;;;;;;;;;11.80;11.80;;;;;27.70;56.09;100294.50;4962273;28;8824;-74
2021/07/03 10:44:25;;;;;;;;;19.60;19.60;;;;;27.72;57.01;100299.72;4962972;28;8910;-75
2021/07/03 10:47:21;;;;;;;;;29.80;28.80;;;;;27.81;56.60;100299.78;4973979;28;10150;-71
2021/07/03 10:50:35;;;;;;;;;18.60;18.60;;;;;27.40;56.89;100307.25;4987886;28;8869;-74
2021/07/03 10:53:32;;;;;;;;;12.00;11.00;;;;;26.99;55.79;100296.78;4981546;28;8958;-73
2021/07/03 10:56:40;;;;;;;;;6.00;6.00;;;;;27.15;55.92;100282.50;4964432;28;8844;-73
2021/07/03 10:59:42;;;;;;;;;10.40;9.60;;;;;26.99;57.87;100279.75;4961300;28;8825;-73
2021/07/03 11:02:18;;;;;;;;;21.20;20.40;;;;;27.02;59.16;100295.06;4970904;28;8863;-73
2021/07/03 11:04:49;;;;;;;;;20.40;20.40;;;;;26.55;60.15;100309.88;4977623;28;8908;-74
2021/07/03 11:07:46;;;;;;;;;27.00;26.60;;;;;26.14;62.53;100308.56;4974992;28;8846;-73
2021/07/03 11:10:42;;;;;;;;;25.60;25.60;;;;;25.91;62.80;100291.78;4972280;28;8868;-73
2021/07/03 11:13:23;;;;;;;;;21.60;21.60;;;;;25.90;62.20;100298.72;4974101;28;8865;-74
2021/07/03 11:16:18;;;;;;;;;21.60;21.60;;;;;26.11;63.86;100312.28;4956266;28;8882;-74
2021/07/03 11:19:26;;;;;;;;;15.40;15.40;;;;;25.97;61.60;100299.31;4969278;28;8936;-74
2021/07/03 11:22:25;;;;;;;;;15.60;15.60;;;;;25.73;63.48;100284.56;4976206;28;8882;-74
2021/07/03 11:25:29;;;;;;;;;12.60;12.40;;;;;25.47;63.55;100280.78;4972683;28;8913;-74
2021/07/03 11:28:25;;;;;;;;;7.60;7.00;;;;;25.48;62.60;100295.72;4972284;28;8837;-72
2021/07/03 11:31:21;;;;;;;;;21.20;17.40;;;;;25.64;63.93;100324.03;4966059;28;8892;-73
2021/07/03 11:34:16;;;;;;;;;13.60;13.60;;;;;25.81;63.92;100309.88;4972444;28;8842;-74
2021/07/03 11:37:12;;;;;;;;;18.00;18.00;;;;;25.70;64.32;100274.13;4983232;28;8857;-73
2021/07/03 11:40:10;;;;;;;;;15.20;14.80;;;;;25.81;64.80;100248.38;4976445;28;8868;-72
2021/07/03 11:43:07;;;;;;;;;16.80;16.80;;;;;25.63;65.20;100237.50;4974841;28;8854;-73
2021/07/03 11:46:03;;;;;;;;;12.20;12.20;;;;;25.68;65.79;100251.09;4985107;28;8869;-73
2021/07/03 11:49:00;;;;;;;;;39.25;34.25;;;;;25.42;66.07;100260.69;4947925;28;8837;-73
2021/07/03 11:52:01;;;;;;;;;41.75;36.75;;;;;25.40;67.37;100255.47;4967904;28;8896;-72
2021/07/03 11:55:05;;;;;;;;;42.50;37.00;;;;;25.34;67.68;100245.13;4962518;28;8854;-74
2021/07/03 11:58:02;;;;;;;;;36.25;33.25;;;;;24.93;68.33;100277.63;4976458;28;8904;-72
2021/07/03 12:01:03;;;;;;;;;27.00;27.00;;;;;25.18;68.17;100303.31;4977394;28;8949;-73
2021/07/03 12:03:59;;;;;;;;;19.20;19.20;;;;;25.38;67.31;100274.94;4965198;28;8860;-73
2021/07/03 12:07:00;;;;;;;;;22.60;22.60;;;;;25.44;66.97;100272.34;4958770;28;8905;-73
2021/07/03 12:10:07;;;;;;;;;22.80;22.80;;;;;25.31;68.16;100291.31;4979156;28;8863;-72
2021/07/03 12:13:18;;;;;;;;;18.20;18.20;;;;;25.21;68.26;100298.78;4971692;28;8862;-72
2021/07/03 12:16:15;;;;;;;;;15.00;15.00;;;;;25.13;68.02;100325.66;4978241;28;8856;-73
2021/07/03 12:19:19;;;;;;;;;22.40;22.40;;;;;25.13;69.75;100349.09;4976178;28;8877;-72
2021/07/03 12:22:14;;;;;;;;;8.00;8.00;;;;;25.00;69.79;100365.16;4979231;28;8841;-73
2021/07/03 12:25:20;;;;;;;;;16.20;16.20;;;;;25.01;71.11;100358.25;4981512;28;8832;-73
2021/07/03 12:28:15;;;;;;;;;18.60;18.00;;;;;25.00;72.60;100336.84;4964298;28;8872;-74
2021/07/03 12:31:11;;;;;;;;;18.60;18.60;;;;;24.72;75.70;100317.69;4965661;28;9648;-76
2021/07/03 12:34:11;;;;;;;;;16.60;16.60;;;;;24.52;77.68;100321.31;4979722;28;8854;-77
2021/07/03 12:37:11;;;;;;;;;19.00;18.20;;;;;24.42;79.25;100311.03;4962735;28;8916;-75
2021/07/03 12:40:15;;;;;;;;;17.60;17.60;;;;;24.67;78.14;100325.44;4979473;28;8964;-76
2021/07/03 12:43:11;;;;;;;;;20.40;18.80;;;;;24.42;78.08;100316.69;4977513;28;8843;-77
2021/07/03 12:46:07;;;;;;;;;15.80;15.80;;;;;24.21;79.23;100305.75;4979558;28;8868;-79
2021/07/03 12:49:04;;;;;;;;;16.00;16.00;;;;;24.29;79.02;100304.38;4967424;28;8846;-79
2021/07/03 12:51:59;;;;;;;;;17.60;17.60;;;;;24.30;78.83;100317.28;4976880;28;8842;-80
2021/07/03 12:54:56;;;;;;;;;15.40;15.40;;;;;24.21;78.52;100312.22;4967721;28;9610;-77
2021/07/03 12:57:52;;;;;;;;;11.80;11.20;;;;;24.27;78.74;100304.84;4963262;28;8860;-78
2021/07/03 13:00:47;;;;;;;;;17.80;17.80;;;;;24.08;79.50;100285.84;4976768;28;8853;-81
2021/07/03 13:03:43;;;;;;;;;16.00;16.00;;;;;24.07;79.11;100287.06;4975258;28;8889;-80
2021/07/03 13:06:39;;;;;;;;;15.80;15.80;;;;;24.07;79.87;100287.06;4974957;28;8841;-81
2021/07/03 13:09:34;;;;;;;;;17.20;17.20;;;;;23.97;81.51;100282.44;4971016;28;9601;-82
2021/07/03 13:12:30;;;;;;;;;18.00;17.60;;;;;23.87;82.65;100275.75;4975244;28;9035;-81
2021/07/03 13:15:26;;;;;;;;;15.80;15.80;;;;;23.74;83.67;100269.13;4964676;28;8863;-82
2021/07/03 13:18:22;;;;;;;;;15.00;15.00;;;;;23.67;82.55;100255.16;4950154;28;8868;-79
2021/07/03 13:21:18;;;;;;;;;15.00;15.00;;;;;23.80;81.47;100233.53;4966306;28;8857;-80
2021/07/03 13:24:31;;;;;;;;;19.80;19.60;;;;;23.52;82.32;100175.56;4946041;28;9007;-83
2021/07/03 13:27:27;;;;;;;;;15.00;15.00;;;;;23.21;84.81;100166.44;4964600;28;8868;-78
2021/07/03 13:30:23;;;;;;;;;15.00;15.00;;;;;23.16;85.58;100170.56;4954499;28;9757;-82
2021/07/03 13:33:20;;;;;;;;;15.00;15.00;;;;;23.05;85.92;100175.59;4976092;28;8889;-81